sensor_id;sensor_type;location;lat;lon;timestamp;P1;durP1;ratioP1;P2;durP2;ratioP2
5117;SDS011;2578;51.622;7.046;2022-09-23T00:01:15;7.60;;;1.30;;
5117;SDS011;2578;51.622;7.046;2022-09-23T00:03:41;7.60;;;1.30;;
5117;SDS011;2578;51.622;7.046;2022-09-23T00:06:10;7.53;;;1.33;;
5117;SDS011;2578;51.622;7.046;2022-09-23T00:08:38;7.63;;;1.40;;
5117;SDS011;2578;51.622;7.046;2022-09-23T00:11:04;7.63;;;1.30;;
5117;SDS011;2578;51.622;7.046;2022-09-23T00:13:32;8.20;;;1.90;;
5117;SDS011;2578;51.622;7.046;2022-09-23T00:16:03;7.60;;;1.30;;
5117;SDS011;2578;51.622;7.046;2022-09-23T00:18:32;7.57;;;1.30;;
5117;SDS011;2578;51.622;7.046;2022-09-23T00:21:04;7.60;;;1.40;;
5117;SDS011;2578;51.622;7.046;2022-09-23T00:23:32;7.90;;;1.70;;
5117;SDS011;2578;51.622;7.046;2022-09-23T00:25:58;8.20;;;1.93;;
5117;SDS011;2578;51.622;7.046;2022-09-23T00:28:25;7.77;;;1.40;;
5117;SDS011;2578;51.622;7.046;2022-09-23T00:30:51;7.87;;;1.50;;
5117;SDS011;2578;51.622;7.046;2022-09-23T00:33:16;8.80;;;2.20;;
5117;SDS011;2578;51.622;7.046;2022-09-23T00:35:42;8.13;;;1.50;;
5117;SDS011;2578;51.622;7.046;2022-09-23T00:38:08;8.03;;;1.40;;
5117;SDS011;2578;51.622;7.046;2022-09-23T00:40:34;8.33;;;1.60;;
5117;SDS011;2578;51.622;7.046;2022-09-23T00:43:00;8.30;;;1.30;;
5117;SDS011;2578;51.622;7.046;2022-09-23T00:45:26;8.33;;;1.40;;
5117;SDS011;2578;51.622;7.046;2022-09-23T00:47:57;8.90;;;1.67;;
5117;SDS011;2578;51.622;7.046;2022-09-23T00:50:29;9.60;;;1.57;;
5117;SDS011;2578;51.622;7.046;2022-09-23T00:53:02;8.17;;;1.20;;
5117;SDS011;2578;51.622;7.046;2022-09-23T00:55:32;8.17;;;1.30;;
5117;SDS011;2578;51.622;7.046;2022-09-23T00:58:02;8.50;;;1.50;;
5117;SDS011;2578;51.622;7.046;2022-09-23T01:00:30;8.17;;;1.33;;
5117;SDS011;2578;51.622;7.046;2022-09-23T01:02:56;8.03;;;1.37;;
5117;SDS011;2578;51.622;7.046;2022-09-23T01:05:21;8.27;;;1.53;;
5117;SDS011;2578;51.622;7.046;2022-09-23T01:07:47;8.00;;;1.53;;
5117;SDS011;2578;51.622;7.046;2022-09-23T01:10:14;7.87;;;1.60;;
5117;SDS011;2578;51.622;7.046;2022-09-23T01:18:25;7.70;;;1.73;;
5117;SDS011;2578;51.622;7.046;2022-09-23T01:46:02;7.90;;;1.50;;
5117;SDS011;2578;51.622;7.046;2022-09-23T01:48:37;7.77;;;1.37;;
5117;SDS011;2578;51.622;7.046;2022-09-23T01:51:06;7.87;;;1.53;;
5117;SDS011;2578;51.622;7.046;2022-09-23T01:53:42;7.70;;;1.40;;
5117;SDS011;2578;51.622;7.046;2022-09-23T01:56:20;7.70;;;1.40;;
5117;SDS011;2578;51.622;7.046;2022-09-23T01:59:00;7.80;;;1.40;;
5117;SDS011;2578;51.622;7.046;2022-09-23T02:01:40;7.67;;;1.47;;
5117;SDS011;2578;51.622;7.046;2022-09-23T02:04:14;7.63;;;1.30;;
5117;SDS011;2578;51.622;7.046;2022-09-23T02:06:54;7.73;;;1.50;;
5117;SDS011;2578;51.622;7.046;2022-09-23T02:09:27;7.60;;;1.50;;
5117;SDS011;2578;51.622;7.046;2022-09-23T02:12:00;7.63;;;1.40;;
5117;SDS011;2578;51.622;7.046;2022-09-23T02:14:47;7.70;;;1.40;;
5117;SDS011;2578;51.622;7.046;2022-09-23T02:17:46;7.63;;;1.40;;
5117;SDS011;2578;51.622;7.046;2022-09-23T02:20:29;7.60;;;1.40;;
5117;SDS011;2578;51.622;7.046;2022-09-23T02:23:18;7.47;;;1.40;;
5117;SDS011;2578;51.622;7.046;2022-09-23T02:26:00;8.07;;;1.80;;
5117;SDS011;2578;51.622;7.046;2022-09-23T02:28:33;11.03;;;2.73;;
5117;SDS011;2578;51.622;7.046;2022-09-23T02:31:26;7.77;;;1.50;;
5117;SDS011;2578;51.622;7.046;2022-09-23T02:34:16;7.77;;;1.50;;
5117;SDS011;2578;51.622;7.046;2022-09-23T02:37:08;8.07;;;1.97;;
5117;SDS011;2578;51.622;7.046;2022-09-23T02:39:51;8.00;;;1.80;;
5117;SDS011;2578;51.622;7.046;2022-09-23T02:42:20;7.70;;;1.40;;
5117;SDS011;2578;51.622;7.046;2022-09-23T02:44:51;7.80;;;1.50;;
5117;SDS011;2578;51.622;7.046;2022-09-23T02:47:16;7.70;;;1.40;;
5117;SDS011;2578;51.622;7.046;2022-09-23T02:49:48;7.77;;;1.40;;
5117;SDS011;2578;51.622;7.046;2022-09-23T02:52:13;7.70;;;1.40;;
5117;SDS011;2578;51.622;7.046;2022-09-23T02:54:41;7.73;;;1.40;;
5117;SDS011;2578;51.622;7.046;2022-09-23T02:57:07;7.67;;;1.30;;
5117;SDS011;2578;51.622;7.046;2022-09-23T02:59:33;7.57;;;1.30;;
5117;SDS011;2578;51.622;7.046;2022-09-23T03:10:24;7.40;;;1.40;;
5117;SDS011;2578;51.622;7.046;2022-09-23T03:15:51;7.47;;;1.30;;
5117;SDS011;2578;51.622;7.046;2022-09-23T03:18:28;7.37;;;1.30;;
5117;SDS011;2578;51.622;7.046;2022-09-23T03:21:01;7.53;;;1.40;;
5117;SDS011;2578;51.622;7.046;2022-09-23T03:23:35;7.90;;;2.17;;
5117;SDS011;2578;51.622;7.046;2022-09-23T03:26:06;7.47;;;1.30;;
5117;SDS011;2578;51.622;7.046;2022-09-23T03:28:36;7.47;;;1.30;;
5117;SDS011;2578;51.622;7.046;2022-09-23T03:31:07;7.40;;;1.30;;
5117;SDS011;2578;51.622;7.046;2022-09-23T03:33:34;7.53;;;1.50;;
5117;SDS011;2578;51.622;7.046;2022-09-23T03:36:05;7.47;;;1.40;;
5117;SDS011;2578;51.622;7.046;2022-09-23T03:38:54;7.37;;;1.40;;
5117;SDS011;2578;51.622;7.046;2022-09-23T03:41:31;7.43;;;1.40;;
5117;SDS011;2578;51.622;7.046;2022-09-23T03:44:03;7.50;;;1.40;;
5117;SDS011;2578;51.622;7.046;2022-09-23T03:46:32;7.60;;;1.40;;
5117;SDS011;2578;51.622;7.046;2022-09-23T03:49:01;7.60;;;1.50;;
5117;SDS011;2578;51.622;7.046;2022-09-23T03:51:39;7.60;;;1.40;;
5117;SDS011;2578;51.622;7.046;2022-09-23T03:54:05;7.60;;;1.50;;
5117;SDS011;2578;51.622;7.046;2022-09-23T03:56:30;7.67;;;1.60;;
5117;SDS011;2578;51.622;7.046;2022-09-23T03:58:56;7.53;;;1.50;;
5117;SDS011;2578;51.622;7.046;2022-09-23T04:01:22;7.63;;;1.60;;
5117;SDS011;2578;51.622;7.046;2022-09-23T04:03:48;7.60;;;1.60;;
5117;SDS011;2578;51.622;7.046;2022-09-23T04:06:16;7.63;;;1.57;;
5117;SDS011;2578;51.622;7.046;2022-09-23T04:08:41;7.90;;;1.90;;
5117;SDS011;2578;51.622;7.046;2022-09-23T04:11:07;7.60;;;1.50;;
5117;SDS011;2578;51.622;7.046;2022-09-23T04:13:32;7.60;;;1.60;;
5117;SDS011;2578;51.622;7.046;2022-09-23T04:15:58;7.60;;;1.43;;
5117;SDS011;2578;51.622;7.046;2022-09-23T04:18:24;7.73;;;1.40;;
5117;SDS011;2578;51.622;7.046;2022-09-23T04:20:49;7.63;;;1.40;;
5117;SDS011;2578;51.622;7.046;2022-09-23T04:23:15;7.67;;;1.50;;
5117;SDS011;2578;51.622;7.046;2022-09-23T04:25:44;7.57;;;1.50;;
5117;SDS011;2578;51.622;7.046;2022-09-23T04:28:11;7.67;;;1.50;;
5117;SDS011;2578;51.622;7.046;2022-09-23T04:30:40;7.77;;;1.60;;
5117;SDS011;2578;51.622;7.046;2022-09-23T04:33:10;7.77;;;1.50;;
5117;SDS011;2578;51.622;7.046;2022-09-23T04:35:37;7.70;;;1.40;;
5117;SDS011;2578;51.622;7.046;2022-09-23T04:38:04;7.77;;;1.50;;
5117;SDS011;2578;51.622;7.046;2022-09-23T04:40:31;7.73;;;1.50;;
5117;SDS011;2578;51.622;7.046;2022-09-23T04:42:57;7.80;;;1.50;;
5117;SDS011;2578;51.622;7.046;2022-09-23T04:45:23;7.80;;;1.50;;
5117;SDS011;2578;51.622;7.046;2022-09-23T04:47:48;7.57;;;1.60;;
5117;SDS011;2578;51.622;7.046;2022-09-23T04:50:14;7.50;;;1.50;;
5117;SDS011;2578;51.622;7.046;2022-09-23T04:52:40;7.70;;;1.80;;
5117;SDS011;2578;51.622;7.046;2022-09-23T04:55:05;7.60;;;1.67;;
5117;SDS011;2578;51.622;7.046;2022-09-23T04:57:32;7.70;;;1.80;;
5117;SDS011;2578;51.622;7.046;2022-09-23T04:59:58;7.73;;;1.50;;
5117;SDS011;2578;51.622;7.046;2022-09-23T05:02:24;7.77;;;1.60;;
5117;SDS011;2578;51.622;7.046;2022-09-23T05:04:51;17.83;;;2.90;;
5117;SDS011;2578;51.622;7.046;2022-09-23T05:07:16;7.83;;;1.60;;
5117;SDS011;2578;51.622;7.046;2022-09-23T05:09:43;7.63;;;1.60;;
5117;SDS011;2578;51.622;7.046;2022-09-23T05:12:09;7.83;;;1.60;;
5117;SDS011;2578;51.622;7.046;2022-09-23T05:14:35;9.40;;;2.13;;
5117;SDS011;2578;51.622;7.046;2022-09-23T05:17:02;7.83;;;1.60;;
5117;SDS011;2578;51.622;7.046;2022-09-23T05:19:28;7.77;;;1.60;;
5117;SDS011;2578;51.622;7.046;2022-09-23T05:21:54;7.83;;;1.60;;
5117;SDS011;2578;51.622;7.046;2022-09-23T05:24:20;7.83;;;1.60;;
5117;SDS011;2578;51.622;7.046;2022-09-23T05:26:46;7.73;;;1.60;;
5117;SDS011;2578;51.622;7.046;2022-09-23T05:29:12;7.67;;;1.60;;
5117;SDS011;2578;51.622;7.046;2022-09-23T05:31:38;7.70;;;1.60;;
5117;SDS011;2578;51.622;7.046;2022-09-23T05:34:04;7.70;;;1.60;;
5117;SDS011;2578;51.622;7.046;2022-09-23T05:36:31;7.60;;;1.53;;
5117;SDS011;2578;51.622;7.046;2022-09-23T05:38:58;7.47;;;1.50;;
5117;SDS011;2578;51.622;7.046;2022-09-23T05:41:24;7.53;;;1.70;;
5117;SDS011;2578;51.622;7.046;2022-09-23T05:43:51;7.63;;;1.70;;
5117;SDS011;2578;51.622;7.046;2022-09-23T05:46:22;7.63;;;1.50;;
5117;SDS011;2578;51.622;7.046;2022-09-23T05:48:49;7.57;;;1.60;;
5117;SDS011;2578;51.622;7.046;2022-09-23T05:51:15;7.53;;;1.60;;
5117;SDS011;2578;51.622;7.046;2022-09-23T05:53:44;7.57;;;1.50;;
5117;SDS011;2578;51.622;7.046;2022-09-23T05:56:11;7.50;;;1.50;;
5117;SDS011;2578;51.622;7.046;2022-09-23T05:58:37;7.57;;;1.60;;
5117;SDS011;2578;51.622;7.046;2022-09-23T06:01:14;7.47;;;1.60;;
5117;SDS011;2578;51.622;7.046;2022-09-23T06:03:51;7.60;;;2.00;;
5117;SDS011;2578;51.622;7.046;2022-09-23T06:06:19;7.50;;;1.30;;
5117;SDS011;2578;51.622;7.046;2022-09-23T06:08:50;7.40;;;1.20;;
5117;SDS011;2578;51.622;7.046;2022-09-23T06:11:15;7.43;;;1.10;;
5117;SDS011;2578;51.622;7.046;2022-09-23T06:13:47;7.30;;;1.10;;
5117;SDS011;2578;51.622;7.046;2022-09-23T06:16:16;7.50;;;1.20;;
5117;SDS011;2578;51.622;7.046;2022-09-23T06:18:42;7.50;;;1.20;;
5117;SDS011;2578;51.622;7.046;2022-09-23T06:21:18;7.37;;;1.20;;
5117;SDS011;2578;51.622;7.046;2022-09-23T06:23:44;7.40;;;1.20;;
5117;SDS011;2578;51.622;7.046;2022-09-23T06:26:11;7.43;;;1.30;;
5117;SDS011;2578;51.622;7.046;2022-09-23T06:28:38;7.60;;;1.20;;
5117;SDS011;2578;51.622;7.046;2022-09-23T06:31:06;7.53;;;1.20;;
5117;SDS011;2578;51.622;7.046;2022-09-23T06:33:34;7.70;;;1.10;;
5117;SDS011;2578;51.622;7.046;2022-09-23T06:36:01;7.63;;;1.10;;
5117;SDS011;2578;51.622;7.046;2022-09-23T06:38:28;7.60;;;1.10;;
5117;SDS011;2578;51.622;7.046;2022-09-23T06:40:55;7.53;;;1.10;;
5117;SDS011;2578;51.622;7.046;2022-09-23T06:43:22;7.57;;;1.20;;
5117;SDS011;2578;51.622;7.046;2022-09-23T06:45:55;7.60;;;1.40;;
5117;SDS011;2578;51.622;7.046;2022-09-23T06:48:24;7.67;;;1.50;;
5117;SDS011;2578;51.622;7.046;2022-09-23T06:50:50;8.23;;;2.47;;
5117;SDS011;2578;51.622;7.046;2022-09-23T06:53:18;7.97;;;2.30;;
5117;SDS011;2578;51.622;7.046;2022-09-23T06:55:47;8.27;;;2.50;;
5117;SDS011;2578;51.622;7.046;2022-09-23T06:58:21;8.83;;;3.90;;
5117;SDS011;2578;51.622;7.046;2022-09-23T07:00:46;8.83;;;4.40;;
5117;SDS011;2578;51.622;7.046;2022-09-23T07:03:12;9.00;;;4.80;;
5117;SDS011;2578;51.622;7.046;2022-09-23T07:05:38;8.80;;;4.60;;
5117;SDS011;2578;51.622;7.046;2022-09-23T07:08:07;8.70;;;4.10;;
5117;SDS011;2578;51.622;7.046;2022-09-23T07:10:35;8.90;;;5.00;;
5117;SDS011;2578;51.622;7.046;2022-09-23T07:13:02;8.93;;;5.40;;
5117;SDS011;2578;51.622;7.046;2022-09-23T07:15:28;9.57;;;7.37;;
5117;SDS011;2578;51.622;7.046;2022-09-23T07:17:54;10.20;;;8.73;;
5117;SDS011;2578;51.622;7.046;2022-09-23T07:20:19;10.73;;;9.60;;
5117;SDS011;2578;51.622;7.046;2022-09-23T07:22:49;11.40;;;10.20;;
5117;SDS011;2578;51.622;7.046;2022-09-23T07:25:16;12.10;;;10.90;;
5117;SDS011;2578;51.622;7.046;2022-09-23T07:27:42;12.60;;;11.30;;
5117;SDS011;2578;51.622;7.046;2022-09-23T07:30:08;13.90;;;12.60;;
5117;SDS011;2578;51.622;7.046;2022-09-23T07:32:34;15.00;;;13.60;;
5117;SDS011;2578;51.622;7.046;2022-09-23T07:34:59;15.00;;;13.60;;
5117;SDS011;2578;51.622;7.046;2022-09-23T07:37:25;15.60;;;14.10;;
5117;SDS011;2578;51.622;7.046;2022-09-23T07:39:51;15.00;;;13.60;;
5117;SDS011;2578;51.622;7.046;2022-09-23T07:42:16;14.70;;;13.30;;
5117;SDS011;2578;51.622;7.046;2022-09-23T07:44:42;16.00;;;14.50;;
5117;SDS011;2578;51.622;7.046;2022-09-23T07:47:09;15.50;;;14.00;;
5117;SDS011;2578;51.622;7.046;2022-09-23T07:49:35;15.67;;;14.17;;
5117;SDS011;2578;51.622;7.046;2022-09-23T07:52:01;15.40;;;13.90;;
5117;SDS011;2578;51.622;7.046;2022-09-23T07:54:26;15.50;;;14.10;;
5117;SDS011;2578;51.622;7.046;2022-09-23T07:56:53;15.00;;;13.60;;
5117;SDS011;2578;51.622;7.046;2022-09-23T07:59:19;14.97;;;13.57;;
5117;SDS011;2578;51.622;7.046;2022-09-23T08:01:46;15.90;;;14.40;;
5117;SDS011;2578;51.622;7.046;2022-09-23T08:04:14;16.67;;;15.17;;
5117;SDS011;2578;51.622;7.046;2022-09-23T08:06:44;16.10;;;14.60;;
5117;SDS011;2578;51.622;7.046;2022-09-23T08:09:12;16.60;;;14.90;;
5117;SDS011;2578;51.622;7.046;2022-09-23T08:11:39;16.10;;;14.60;;
5117;SDS011;2578;51.622;7.046;2022-09-23T08:14:06;16.37;;;14.80;;
5117;SDS011;2578;51.622;7.046;2022-09-23T08:16:33;17.40;;;15.70;;
5117;SDS011;2578;51.622;7.046;2022-09-23T08:18:59;17.20;;;15.60;;
5117;SDS011;2578;51.622;7.046;2022-09-23T08:21:25;16.33;;;14.83;;
5117;SDS011;2578;51.622;7.046;2022-09-23T08:23:51;16.20;;;14.70;;
5117;SDS011;2578;51.622;7.046;2022-09-23T08:26:16;15.67;;;14.17;;
5117;SDS011;2578;51.622;7.046;2022-09-23T08:28:43;16.03;;;14.43;;
5117;SDS011;2578;51.622;7.046;2022-09-23T08:31:09;15.60;;;14.10;;
5117;SDS011;2578;51.622;7.046;2022-09-23T08:33:37;15.50;;;14.00;;
5117;SDS011;2578;51.622;7.046;2022-09-23T08:36:04;16.20;;;14.70;;
5117;SDS011;2578;51.622;7.046;2022-09-23T08:38:30;17.33;;;15.73;;
5117;SDS011;2578;51.622;7.046;2022-09-23T08:41:03;16.00;;;14.50;;
5117;SDS011;2578;51.622;7.046;2022-09-23T08:43:35;17.30;;;15.70;;
5117;SDS011;2578;51.622;7.046;2022-09-23T08:46:05;16.97;;;15.37;;
5117;SDS011;2578;51.622;7.046;2022-09-23T08:48:39;16.90;;;15.30;;
5117;SDS011;2578;51.622;7.046;2022-09-23T08:51:11;17.00;;;15.40;;
5117;SDS011;2578;51.622;7.046;2022-09-23T08:53:40;17.70;;;16.10;;
5117;SDS011;2578;51.622;7.046;2022-09-23T08:56:16;18.80;;;17.10;;
5117;SDS011;2578;51.622;7.046;2022-09-23T09:01:24;20.57;;;18.67;;
5117;SDS011;2578;51.622;7.046;2022-09-23T09:03:59;20.23;;;18.40;;
5117;SDS011;2578;51.622;7.046;2022-09-23T09:06:36;19.40;;;17.60;;
5117;SDS011;2578;51.622;7.046;2022-09-23T09:09:26;19.70;;;17.90;;
5117;SDS011;2578;51.622;7.046;2022-09-23T09:12:18;20.97;;;19.07;;
5117;SDS011;2578;51.622;7.046;2022-09-23T09:17:12;22.10;;;20.00;;
5117;SDS011;2578;51.622;7.046;2022-09-23T09:19:55;23.30;;;21.10;;
5117;SDS011;2578;51.622;7.046;2022-09-23T09:24:59;24.90;;;22.70;;
5117;SDS011;2578;51.622;7.046;2022-09-23T09:27:35;26.40;;;24.10;;
5117;SDS011;2578;51.622;7.046;2022-09-23T09:30:04;27.10;;;24.50;;
5117;SDS011;2578;51.622;7.046;2022-09-23T09:32:43;28.17;;;25.47;;
5117;SDS011;2578;51.622;7.046;2022-09-23T09:35:24;30.17;;;26.63;;
5117;SDS011;2578;51.622;7.046;2022-09-23T09:38:02;27.80;;;25.40;;
5117;SDS011;2578;51.622;7.046;2022-09-23T09:40:30;29.27;;;26.67;;
5117;SDS011;2578;51.622;7.046;2022-09-23T09:42:56;29.80;;;27.00;;
5117;SDS011;2578;51.622;7.046;2022-09-23T09:53:13;28.40;;;25.63;;
5117;SDS011;2578;51.622;7.046;2022-09-23T09:55:44;27.73;;;25.13;;
5117;SDS011;2578;51.622;7.046;2022-09-23T09:58:12;28.67;;;25.97;;
5117;SDS011;2578;51.622;7.046;2022-09-23T10:00:43;29.33;;;26.63;;
5117;SDS011;2578;51.622;7.046;2022-09-23T10:08:24;24.30;;;22.00;;
5117;SDS011;2578;51.622;7.046;2022-09-23T10:11:01;25.27;;;22.90;;
5117;SDS011;2578;51.622;7.046;2022-09-23T10:13:30;24.37;;;22.17;;
5117;SDS011;2578;51.622;7.046;2022-09-23T10:15:57;26.90;;;24.40;;
5117;SDS011;2578;51.622;7.046;2022-09-23T10:21:15;26.40;;;24.00;;
5117;SDS011;2578;51.622;7.046;2022-09-23T10:23:45;26.00;;;23.60;;
5117;SDS011;2578;51.622;7.046;2022-09-23T10:26:15;25.13;;;22.80;;
5117;SDS011;2578;51.622;7.046;2022-09-23T10:28:52;25.67;;;23.27;;
5117;SDS011;2578;51.622;7.046;2022-09-23T10:31:24;26.00;;;23.50;;
5117;SDS011;2578;51.622;7.046;2022-09-23T10:33:58;25.97;;;23.47;;
5117;SDS011;2578;51.622;7.046;2022-09-23T10:36:44;26.10;;;23.60;;
5117;SDS011;2578;51.622;7.046;2022-09-23T10:39:25;26.97;;;24.37;;
5117;SDS011;2578;51.622;7.046;2022-09-23T10:42:58;27.23;;;24.60;;
5117;SDS011;2578;51.622;7.046;2022-09-23T10:45:37;25.93;;;23.43;;
5117;SDS011;2578;51.622;7.046;2022-09-23T10:51:03;27.30;;;24.80;;
5117;SDS011;2578;51.622;7.046;2022-09-23T11:07:21;27.57;;;24.87;;
5117;SDS011;2578;51.622;7.046;2022-09-23T11:12:44;28.30;;;25.70;;
5117;SDS011;2578;51.622;7.046;2022-09-23T11:40:36;28.53;;;25.93;;
5117;SDS011;2578;51.622;7.046;2022-09-23T11:43:22;29.00;;;26.30;;
5117;SDS011;2578;51.622;7.046;2022-09-23T11:51:32;28.20;;;25.60;;
5117;SDS011;2578;51.622;7.046;2022-09-23T11:54:11;28.00;;;25.40;;
5117;SDS011;2578;51.622;7.046;2022-09-23T11:56:53;27.93;;;25.33;;
5117;SDS011;2578;51.622;7.046;2022-09-23T12:02:09;28.90;;;26.30;;
5117;SDS011;2578;51.622;7.046;2022-09-23T12:04:39;28.27;;;25.67;;
5117;SDS011;2578;51.622;7.046;2022-09-23T12:07:10;28.70;;;26.10;;
5117;SDS011;2578;51.622;7.046;2022-09-23T12:18:24;28.63;;;25.93;;
5117;SDS011;2578;51.622;7.046;2022-09-23T12:26:29;28.97;;;26.27;;
5117;SDS011;2578;51.622;7.046;2022-09-23T12:29:01;28.70;;;26.10;;
5117;SDS011;2578;51.622;7.046;2022-09-23T12:31:29;28.67;;;25.97;;
5117;SDS011;2578;51.622;7.046;2022-09-23T12:34:00;29.00;;;26.30;;
5117;SDS011;2578;51.622;7.046;2022-09-23T12:36:30;30.37;;;27.57;;
5117;SDS011;2578;51.622;7.046;2022-09-23T12:39:05;29.93;;;27.23;;
5117;SDS011;2578;51.622;7.046;2022-09-23T12:41:40;28.90;;;26.30;;
5117;SDS011;2578;51.622;7.046;2022-09-23T12:46:39;29.07;;;26.37;;
5117;SDS011;2578;51.622;7.046;2022-09-23T12:49:22;29.53;;;26.83;;
5117;SDS011;2578;51.622;7.046;2022-09-23T12:54:39;28.37;;;25.70;;
5117;SDS011;2578;51.622;7.046;2022-09-23T12:57:10;28.30;;;25.70;;
5117;SDS011;2578;51.622;7.046;2022-09-23T13:05:31;28.43;;;25.73;;
5117;SDS011;2578;51.622;7.046;2022-09-23T13:08:16;25.93;;;23.43;;
5117;SDS011;2578;51.622;7.046;2022-09-23T13:11:00;25.90;;;23.40;;
5117;SDS011;2578;51.622;7.046;2022-09-23T13:13:38;26.90;;;24.30;;
5117;SDS011;2578;51.622;7.046;2022-09-23T13:18:58;29.13;;;26.43;;
5117;SDS011;2578;51.622;7.046;2022-09-23T13:24:15;27.80;;;25.10;;
5117;SDS011;2578;51.622;7.046;2022-09-23T13:26:48;28.00;;;25.30;;
5117;SDS011;2578;51.622;7.046;2022-09-23T13:29:27;27.97;;;25.27;;
5117;SDS011;2578;51.622;7.046;2022-09-23T13:31:58;27.73;;;25.10;;
5117;SDS011;2578;51.622;7.046;2022-09-23T13:34:27;27.20;;;24.60;;
5117;SDS011;2578;51.622;7.046;2022-09-23T13:37:19;28.00;;;25.30;;
5117;SDS011;2578;51.622;7.046;2022-09-23T13:39:49;28.50;;;25.77;;
5117;SDS011;2578;51.622;7.046;2022-09-23T13:42:22;27.77;;;25.07;;
5117;SDS011;2578;51.622;7.046;2022-09-23T13:44:53;27.77;;;25.17;;
5117;SDS011;2578;51.622;7.046;2022-09-23T13:47:24;27.20;;;24.60;;
5117;SDS011;2578;51.622;7.046;2022-09-23T13:49:53;28.17;;;25.47;;
5117;SDS011;2578;51.622;7.046;2022-09-23T13:52:22;26.90;;;24.30;;
5117;SDS011;2578;51.622;7.046;2022-09-23T13:54:54;28.90;;;26.20;;
5117;SDS011;2578;51.622;7.046;2022-09-23T13:57:30;28.43;;;25.73;;
5117;SDS011;2578;51.622;7.046;2022-09-23T14:02:43;28.03;;;25.33;;
5117;SDS011;2578;51.622;7.046;2022-09-23T14:05:11;28.30;;;25.60;;
5117;SDS011;2578;51.622;7.046;2022-09-23T14:07:37;29.03;;;26.30;;
5117;SDS011;2578;51.622;7.046;2022-09-23T14:10:03;28.13;;;25.43;;
5117;SDS011;2578;51.622;7.046;2022-09-23T14:12:31;27.90;;;25.20;;
5117;SDS011;2578;51.622;7.046;2022-09-23T14:15:02;28.60;;;25.63;;
5117;SDS011;2578;51.622;7.046;2022-09-23T14:17:28;28.70;;;25.90;;
5117;SDS011;2578;51.622;7.046;2022-09-23T14:19:54;28.43;;;25.73;;
5117;SDS011;2578;51.622;7.046;2022-09-23T14:22:24;27.27;;;24.70;;
5117;SDS011;2578;51.622;7.046;2022-09-23T14:24:54;29.03;;;26.23;;
5117;SDS011;2578;51.622;7.046;2022-09-23T14:27:27;26.27;;;23.77;;
5117;SDS011;2578;51.622;7.046;2022-09-23T14:29:57;26.30;;;23.70;;
5117;SDS011;2578;51.622;7.046;2022-09-23T14:32:25;26.60;;;24.03;;
5117;SDS011;2578;51.622;7.046;2022-09-23T14:40:23;25.90;;;23.30;;
5117;SDS011;2578;51.622;7.046;2022-09-23T14:45:49;25.40;;;22.90;;
5117;SDS011;2578;51.622;7.046;2022-09-23T14:48:18;25.70;;;23.20;;
5117;SDS011;2578;51.622;7.046;2022-09-23T14:50:50;25.00;;;22.60;;
5117;SDS011;2578;51.622;7.046;2022-09-23T14:55:51;26.30;;;23.80;;
5117;SDS011;2578;51.622;7.046;2022-09-23T14:58:21;25.77;;;23.37;;
5117;SDS011;2578;51.622;7.046;2022-09-23T15:00:59;23.50;;;21.20;;
5117;SDS011;2578;51.622;7.046;2022-09-23T15:03:27;23.90;;;21.50;;
5117;SDS011;2578;51.622;7.046;2022-09-23T15:05:57;23.90;;;21.60;;
5117;SDS011;2578;51.622;7.046;2022-09-23T15:08:27;24.90;;;22.50;;
5117;SDS011;2578;51.622;7.046;2022-09-23T15:11:08;23.77;;;21.47;;
5117;SDS011;2578;51.622;7.046;2022-09-23T15:13:38;24.20;;;21.80;;
5117;SDS011;2578;51.622;7.046;2022-09-23T15:16:05;24.30;;;21.90;;
5117;SDS011;2578;51.622;7.046;2022-09-23T15:18:52;25.23;;;22.80;;
5117;SDS011;2578;51.622;7.046;2022-09-23T15:21:18;24.57;;;22.20;;
5117;SDS011;2578;51.622;7.046;2022-09-23T15:26:16;24.03;;;21.73;;
5117;SDS011;2578;51.622;7.046;2022-09-23T15:28:44;23.50;;;21.20;;
5117;SDS011;2578;51.622;7.046;2022-09-23T15:31:14;24.20;;;21.80;;
5117;SDS011;2578;51.622;7.046;2022-09-23T15:33:44;24.97;;;22.50;;
5117;SDS011;2578;51.622;7.046;2022-09-23T15:36:23;24.47;;;22.07;;
5117;SDS011;2578;51.622;7.046;2022-09-23T15:38:50;24.57;;;21.93;;
5117;SDS011;2578;51.622;7.046;2022-09-23T15:41:17;23.80;;;21.50;;
5117;SDS011;2578;51.622;7.046;2022-09-23T15:43:43;23.20;;;20.90;;
5117;SDS011;2578;51.622;7.046;2022-09-23T15:46:25;24.03;;;21.67;;
5117;SDS011;2578;51.622;7.046;2022-09-23T15:54:54;22.97;;;20.67;;
5117;SDS011;2578;51.622;7.046;2022-09-23T15:57:24;22.80;;;20.60;;
5117;SDS011;2578;51.622;7.046;2022-09-23T15:59:56;22.60;;;20.50;;
5117;SDS011;2578;51.622;7.046;2022-09-23T16:02:57;23.20;;;21.00;;
5117;SDS011;2578;51.622;7.046;2022-09-23T16:05:36;22.90;;;20.70;;
5117;SDS011;2578;51.622;7.046;2022-09-23T16:08:08;23.30;;;21.10;;
5117;SDS011;2578;51.622;7.046;2022-09-23T16:10:47;23.10;;;20.90;;
5117;SDS011;2578;51.622;7.046;2022-09-23T16:13:20;24.17;;;21.97;;
5117;SDS011;2578;51.622;7.046;2022-09-23T16:15:48;21.10;;;19.10;;
5117;SDS011;2578;51.622;7.046;2022-09-23T16:18:15;22.00;;;19.90;;
5117;SDS011;2578;51.622;7.046;2022-09-23T16:20:42;21.50;;;19.40;;
5117;SDS011;2578;51.622;7.046;2022-09-23T16:29:02;21.80;;;19.60;;
5117;SDS011;2578;51.622;7.046;2022-09-23T16:31:46;21.20;;;19.10;;
5117;SDS011;2578;51.622;7.046;2022-09-23T16:37:50;20.50;;;18.50;;
5117;SDS011;2578;51.622;7.046;2022-09-23T16:40:38;19.40;;;17.50;;
5117;SDS011;2578;51.622;7.046;2022-09-23T16:43:29;17.40;;;15.70;;
5117;SDS011;2578;51.622;7.046;2022-09-23T16:46:06;16.37;;;14.77;;
5117;SDS011;2578;51.622;7.046;2022-09-23T16:48:41;15.00;;;13.50;;
5117;SDS011;2578;51.622;7.046;2022-09-23T16:51:16;14.20;;;12.80;;
5117;SDS011;2578;51.622;7.046;2022-09-23T16:56:56;12.30;;;11.10;;
5117;SDS011;2578;51.622;7.046;2022-09-23T16:59:38;12.53;;;11.33;;
5117;SDS011;2578;51.622;7.046;2022-09-23T17:02:32;11.90;;;10.70;;
5117;SDS011;2578;51.622;7.046;2022-09-23T17:05:17;11.93;;;10.73;;
5117;SDS011;2578;51.622;7.046;2022-09-23T17:07:46;10.43;;;8.77;;
5117;SDS011;2578;51.622;7.046;2022-09-23T17:10:37;9.83;;;7.27;;
5117;SDS011;2578;51.622;7.046;2022-09-23T17:13:06;10.07;;;7.67;;
5117;SDS011;2578;51.622;7.046;2022-09-23T17:15:36;10.10;;;7.50;;
5117;SDS011;2578;51.622;7.046;2022-09-23T17:18:06;9.93;;;7.00;;
5117;SDS011;2578;51.622;7.046;2022-09-23T17:20:33;9.37;;;5.90;;
5117;SDS011;2578;51.622;7.046;2022-09-23T17:23:07;9.03;;;5.10;;
5117;SDS011;2578;51.622;7.046;2022-09-23T17:25:36;8.37;;;3.80;;
5117;SDS011;2578;51.622;7.046;2022-09-23T17:28:02;8.40;;;3.40;;
5117;SDS011;2578;51.622;7.046;2022-09-23T17:30:28;7.87;;;3.07;;
5117;SDS011;2578;51.622;7.046;2022-09-23T17:32:57;7.70;;;2.70;;
5117;SDS011;2578;51.622;7.046;2022-09-23T17:35:32;8.50;;;3.53;;
5117;SDS011;2578;51.622;7.046;2022-09-23T17:37:59;7.70;;;2.30;;
5117;SDS011;2578;51.622;7.046;2022-09-23T17:40:33;7.47;;;2.20;;
5117;SDS011;2578;51.622;7.046;2022-09-23T17:43:08;9.37;;;3.87;;
5117;SDS011;2578;51.622;7.046;2022-09-23T17:45:35;7.97;;;2.03;;
5117;SDS011;2578;51.622;7.046;2022-09-23T17:48:01;8.20;;;2.20;;
5117;SDS011;2578;51.622;7.046;2022-09-23T17:50:27;9.17;;;3.30;;
5117;SDS011;2578;51.622;7.046;2022-09-23T17:52:55;9.00;;;2.50;;
5117;SDS011;2578;51.622;7.046;2022-09-23T17:55:24;8.07;;;2.10;;
5117;SDS011;2578;51.622;7.046;2022-09-23T17:57:49;8.13;;;2.10;;
5117;SDS011;2578;51.622;7.046;2022-09-23T18:00:17;7.80;;;1.80;;
5117;SDS011;2578;51.622;7.046;2022-09-23T18:02:42;9.50;;;2.43;;
5117;SDS011;2578;51.622;7.046;2022-09-23T18:05:08;7.83;;;1.70;;
5117;SDS011;2578;51.622;7.046;2022-09-23T18:07:34;7.67;;;1.70;;
5117;SDS011;2578;51.622;7.046;2022-09-23T18:10:00;7.80;;;1.80;;
5117;SDS011;2578;51.622;7.046;2022-09-23T18:12:25;7.90;;;2.30;;
5117;SDS011;2578;51.622;7.046;2022-09-23T18:14:51;7.70;;;2.30;;
5117;SDS011;2578;51.622;7.046;2022-09-23T18:17:16;7.60;;;2.10;;
5117;SDS011;2578;51.622;7.046;2022-09-23T18:19:42;8.87;;;3.50;;
5117;SDS011;2578;51.622;7.046;2022-09-23T18:22:13;7.80;;;2.20;;
5117;SDS011;2578;51.622;7.046;2022-09-23T18:24:38;8.40;;;2.47;;
5117;SDS011;2578;51.622;7.046;2022-09-23T18:27:06;8.13;;;2.27;;
5117;SDS011;2578;51.622;7.046;2022-09-23T18:29:32;8.07;;;2.00;;